sensor_id;sensor_type;location;lat;lon;timestamp;P1;durP1;ratioP1;P2;durP2;ratioP2
15677;SDS011;7939;50.814;6.368;2023-11-19T00:02:15;1.15;;;0.98;;
15677;SDS011;7939;50.814;6.368;2023-11-19T00:04:42;1.17;;;1.08;;
15677;SDS011;7939;50.814;6.368;2023-11-19T00:07:08;2.67;;;1.08;;
15677;SDS011;7939;50.814;6.368;2023-11-19T00:09:37;1.42;;;0.88;;
15677;SDS011;7939;50.814;6.368;2023-11-19T00:12:04;0.70;;;0.70;;
15677;SDS011;7939;50.814;6.368;2023-11-19T00:14:32;1.13;;;0.98;;
15677;SDS011;7939;50.814;6.368;2023-11-19T00:16:59;0.85;;;0.70;;
15677;SDS011;7939;50.814;6.368;2023-11-19T00:19:27;1.20;;;1.20;;
15677;SDS011;7939;50.814;6.368;2023-11-19T00:21:54;0.90;;;0.90;;
15677;SDS011;7939;50.814;6.368;2023-11-19T00:24:20;1.52;;;1.35;;
15677;SDS011;7939;50.814;6.368;2023-11-19T00:26:47;1.75;;;1.00;;
15677;SDS011;7939;50.814;6.368;2023-11-19T00:29:14;1.90;;;0.93;;
15677;SDS011;7939;50.814;6.368;2023-11-19T00:31:41;0.93;;;0.93;;
15677;SDS011;7939;50.814;6.368;2023-11-19T00:34:07;0.90;;;0.90;;
15677;SDS011;7939;50.814;6.368;2023-11-19T00:36:34;1.95;;;1.00;;
15677;SDS011;7939;50.814;6.368;2023-11-19T00:39:01;0.85;;;0.85;;
15677;SDS011;7939;50.814;6.368;2023-11-19T00:41:27;1.30;;;1.20;;
15677;SDS011;7939;50.814;6.368;2023-11-19T00:43:54;2.28;;;1.10;;
15677;SDS011;7939;50.814;6.368;2023-11-19T00:46:20;1.98;;;1.05;;
15677;SDS011;7939;50.814;6.368;2023-11-19T00:48:47;1.10;;;1.00;;
15677;SDS011;7939;50.814;6.368;2023-11-19T00:51:14;1.20;;;1.00;;
15677;SDS011;7939;50.814;6.368;2023-11-19T00:53:42;1.30;;;1.20;;
15677;SDS011;7939;50.814;6.368;2023-11-19T00:56:10;1.25;;;1.15;;
15677;SDS011;7939;50.814;6.368;2023-11-19T00:58:38;1.20;;;1.20;;
15677;SDS011;7939;50.814;6.368;2023-11-19T01:01:04;1.42;;;1.27;;
15677;SDS011;7939;50.814;6.368;2023-11-19T01:03:31;2.33;;;1.40;;
15677;SDS011;7939;50.814;6.368;2023-11-19T01:05:58;1.98;;;1.45;;
15677;SDS011;7939;50.814;6.368;2023-11-19T01:08:27;2.47;;;1.42;;
15677;SDS011;7939;50.814;6.368;2023-11-19T01:10:55;2.15;;;1.80;;
15677;SDS011;7939;50.814;6.368;2023-11-19T01:13:22;1.58;;;1.20;;
15677;SDS011;7939;50.814;6.368;2023-11-19T01:15:49;3.92;;;1.65;;
15677;SDS011;7939;50.814;6.368;2023-11-19T01:18:16;3.22;;;1.70;;
15677;SDS011;7939;50.814;6.368;2023-11-19T01:20:43;2.88;;;1.60;;
15677;SDS011;7939;50.814;6.368;2023-11-19T01:23:09;2.13;;;1.58;;
15677;SDS011;7939;50.814;6.368;2023-11-19T01:25:36;1.65;;;1.40;;
15677;SDS011;7939;50.814;6.368;2023-11-19T01:28:04;2.47;;;1.58;;
15677;SDS011;7939;50.814;6.368;2023-11-19T01:30:31;1.60;;;1.50;;
15677;SDS011;7939;50.814;6.368;2023-11-19T01:32:58;1.95;;;1.50;;
15677;SDS011;7939;50.814;6.368;2023-11-19T01:35:25;2.45;;;1.45;;
15677;SDS011;7939;50.814;6.368;2023-11-19T01:37:51;2.53;;;1.65;;
15677;SDS011;7939;50.814;6.368;2023-11-19T01:40:20;4.82;;;1.90;;
15677;SDS011;7939;50.814;6.368;2023-11-19T01:42:47;3.83;;;1.70;;
15677;SDS011;7939;50.814;6.368;2023-11-19T01:45:19;3.20;;;1.33;;
15677;SDS011;7939;50.814;6.368;2023-11-19T01:47:53;6.15;;;1.92;;
15677;SDS011;7939;50.814;6.368;2023-11-19T01:50:19;1.88;;;1.45;;
15677;SDS011;7939;50.814;6.368;2023-11-19T01:52:47;5.40;;;2.42;;
15677;SDS011;7939;50.814;6.368;2023-11-19T01:55:14;2.92;;;1.70;;
15677;SDS011;7939;50.814;6.368;2023-11-19T01:57:41;5.20;;;2.17;;
15677;SDS011;7939;50.814;6.368;2023-11-19T02:00:08;3.30;;;2.00;;
15677;SDS011;7939;50.814;6.368;2023-11-19T02:02:38;3.47;;;1.83;;
15677;SDS011;7939;50.814;6.368;2023-11-19T02:05:06;5.97;;;2.10;;
15677;SDS011;7939;50.814;6.368;2023-11-19T02:07:33;5.88;;;2.10;;
15677;SDS011;7939;50.814;6.368;2023-11-19T02:09:59;4.03;;;1.77;;
15677;SDS011;7939;50.814;6.368;2023-11-19T02:12:27;2.72;;;2.03;;
15677;SDS011;7939;50.814;6.368;2023-11-19T02:14:54;5.32;;;1.77;;
15677;SDS011;7939;50.814;6.368;2023-11-19T02:17:27;4.38;;;1.98;;
15677;SDS011;7939;50.814;6.368;2023-11-19T02:19:57;4.15;;;2.10;;
15677;SDS011;7939;50.814;6.368;2023-11-19T02:22:24;7.93;;;2.60;;
15677;SDS011;7939;50.814;6.368;2023-11-19T02:24:51;3.42;;;1.98;;
15677;SDS011;7939;50.814;6.368;2023-11-19T02:27:23;5.72;;;2.10;;
15677;SDS011;7939;50.814;6.368;2023-11-19T02:29:56;6.63;;;2.58;;
15677;SDS011;7939;50.814;6.368;2023-11-19T02:32:23;6.18;;;2.33;;
15677;SDS011;7939;50.814;6.368;2023-11-19T02:34:53;6.57;;;2.10;;
15677;SDS011;7939;50.814;6.368;2023-11-19T02:37:19;5.65;;;2.17;;
15677;SDS011;7939;50.814;6.368;2023-11-19T02:39:46;4.93;;;1.90;;
15677;SDS011;7939;50.814;6.368;2023-11-19T02:42:13;8.75;;;2.30;;
15677;SDS011;7939;50.814;6.368;2023-11-19T02:44:43;6.97;;;3.22;;
15677;SDS011;7939;50.814;6.368;2023-11-19T02:47:11;7.88;;;2.08;;
15677;SDS011;7939;50.814;6.368;2023-11-19T02:49:38;8.93;;;2.40;;
15677;SDS011;7939;50.814;6.368;2023-11-19T02:52:05;5.20;;;1.98;;
15677;SDS011;7939;50.814;6.368;2023-11-19T02:54:32;5.60;;;2.22;;
15677;SDS011;7939;50.814;6.368;2023-11-19T02:57:00;12.07;;;3.42;;
15677;SDS011;7939;50.814;6.368;2023-11-19T02:59:28;5.82;;;2.00;;
15677;SDS011;7939;50.814;6.368;2023-11-19T03:02:04;6.53;;;2.50;;
15677;SDS011;7939;50.814;6.368;2023-11-19T03:04:33;6.22;;;2.45;;
15677;SDS011;7939;50.814;6.368;2023-11-19T03:06:59;5.57;;;2.15;;
15677;SDS011;7939;50.814;6.368;2023-11-19T03:09:27;2.85;;;2.17;;
15677;SDS011;7939;50.814;6.368;2023-11-19T03:11:54;6.05;;;3.10;;
15677;SDS011;7939;50.814;6.368;2023-11-19T03:14:21;3.90;;;2.47;;
15677;SDS011;7939;50.814;6.368;2023-11-19T03:16:48;5.82;;;2.35;;
15677;SDS011;7939;50.814;6.368;2023-11-19T03:19:14;6.10;;;2.13;;
15677;SDS011;7939;50.814;6.368;2023-11-19T03:21:42;8.45;;;2.63;;
15677;SDS011;7939;50.814;6.368;2023-11-19T03:24:10;3.67;;;2.00;;
15677;SDS011;7939;50.814;6.368;2023-11-19T03:26:36;5.68;;;2.42;;
15677;SDS011;7939;50.814;6.368;2023-11-19T03:29:03;5.88;;;2.08;;
15677;SDS011;7939;50.814;6.368;2023-11-19T03:31:30;5.82;;;2.38;;
15677;SDS011;7939;50.814;6.368;2023-11-19T03:33:56;6.95;;;2.33;;
15677;SDS011;7939;50.814;6.368;2023-11-19T03:36:23;7.88;;;2.33;;
15677;SDS011;7939;50.814;6.368;2023-11-19T03:38:51;5.72;;;2.05;;
15677;SDS011;7939;50.814;6.368;2023-11-19T03:41:17;7.22;;;2.88;;
15677;SDS011;7939;50.814;6.368;2023-11-19T03:43:44;5.70;;;1.92;;
15677;SDS011;7939;50.814;6.368;2023-11-19T03:46:17;7.38;;;2.92;;
15677;SDS011;7939;50.814;6.368;2023-11-19T03:48:44;6.20;;;2.40;;
15677;SDS011;7939;50.814;6.368;2023-11-19T03:51:11;7.97;;;3.00;;
15677;SDS011;7939;50.814;6.368;2023-11-19T03:53:41;11.52;;;3.00;;
15677;SDS011;7939;50.814;6.368;2023-11-19T03:56:09;9.30;;;2.40;;
15677;SDS011;7939;50.814;6.368;2023-11-19T03:58:36;7.03;;;3.00;;
15677;SDS011;7939;50.814;6.368;2023-11-19T04:01:03;9.07;;;2.70;;
15677;SDS011;7939;50.814;6.368;2023-11-19T04:03:30;5.78;;;2.53;;
15677;SDS011;7939;50.814;6.368;2023-11-19T04:05:56;5.88;;;2.88;;
15677;SDS011;7939;50.814;6.368;2023-11-19T04:08:24;4.68;;;2.30;;
15677;SDS011;7939;50.814;6.368;2023-11-19T04:10:50;5.78;;;2.58;;
15677;SDS011;7939;50.814;6.368;2023-11-19T04:13:18;6.85;;;2.70;;
15677;SDS011;7939;50.814;6.368;2023-11-19T04:15:45;9.50;;;3.22;;
15677;SDS011;7939;50.814;6.368;2023-11-19T04:18:12;11.35;;;2.95;;
15677;SDS011;7939;50.814;6.368;2023-11-19T04:20:38;9.80;;;2.85;;
15677;SDS011;7939;50.814;6.368;2023-11-19T04:23:07;7.90;;;2.38;;
15677;SDS011;7939;50.814;6.368;2023-11-19T04:25:34;9.68;;;3.13;;
15677;SDS011;7939;50.814;6.368;2023-11-19T04:28:01;13.43;;;4.07;;
15677;SDS011;7939;50.814;6.368;2023-11-19T04:30:29;7.32;;;2.85;;
15677;SDS011;7939;50.814;6.368;2023-11-19T04:32:56;13.63;;;3.63;;
15677;SDS011;7939;50.814;6.368;2023-11-19T04:35:23;13.45;;;3.13;;
15677;SDS011;7939;50.814;6.368;2023-11-19T04:37:51;8.27;;;2.75;;
15677;SDS011;7939;50.814;6.368;2023-11-19T04:40:18;12.63;;;3.20;;
15677;SDS011;7939;50.814;6.368;2023-11-19T04:42:44;8.27;;;3.58;;
15677;SDS011;7939;50.814;6.368;2023-11-19T04:45:11;12.10;;;2.67;;
15677;SDS011;7939;50.814;6.368;2023-11-19T04:47:39;8.85;;;2.95;;
15677;SDS011;7939;50.814;6.368;2023-11-19T04:50:05;8.27;;;2.92;;
15677;SDS011;7939;50.814;6.368;2023-11-19T04:52:36;7.25;;;2.88;;
15677;SDS011;7939;50.814;6.368;2023-11-19T04:55:05;7.28;;;2.50;;
15677;SDS011;7939;50.814;6.368;2023-11-19T04:57:33;10.70;;;2.97;;
15677;SDS011;7939;50.814;6.368;2023-11-19T04:59:59;8.82;;;3.15;;
15677;SDS011;7939;50.814;6.368;2023-11-19T05:02:26;11.25;;;2.60;;
15677;SDS011;7939;50.814;6.368;2023-11-19T05:04:53;4.55;;;2.50;;
15677;SDS011;7939;50.814;6.368;2023-11-19T05:07:20;10.80;;;2.58;;
15677;SDS011;7939;50.814;6.368;2023-11-19T05:09:47;9.20;;;3.05;;
15677;SDS011;7939;50.814;6.368;2023-11-19T05:12:13;14.18;;;2.55;;
15677;SDS011;7939;50.814;6.368;2023-11-19T05:14:40;10.07;;;2.63;;
15677;SDS011;7939;50.814;6.368;2023-11-19T05:17:13;15.55;;;3.30;;
15677;SDS011;7939;50.814;6.368;2023-11-19T05:19:39;8.38;;;3.20;;
15677;SDS011;7939;50.814;6.368;2023-11-19T05:22:07;11.85;;;2.80;;
15677;SDS011;7939;50.814;6.368;2023-11-19T05:24:34;13.05;;;3.05;;
15677;SDS011;7939;50.814;6.368;2023-11-19T05:27:01;9.27;;;2.50;;
15677;SDS011;7939;50.814;6.368;2023-11-19T05:29:27;9.15;;;2.17;;
15677;SDS011;7939;50.814;6.368;2023-11-19T05:31:54;11.80;;;3.65;;
15677;SDS011;7939;50.814;6.368;2023-11-19T05:34:21;13.40;;;3.10;;
15677;SDS011;7939;50.814;6.368;2023-11-19T05:36:48;8.23;;;2.92;;
15677;SDS011;7939;50.814;6.368;2023-11-19T05:39:16;9.43;;;2.42;;
15677;SDS011;7939;50.814;6.368;2023-11-19T05:41:43;11.40;;;3.00;;
15677;SDS011;7939;50.814;6.368;2023-11-19T05:44:10;10.85;;;2.47;;
15677;SDS011;7939;50.814;6.368;2023-11-19T05:46:36;8.48;;;2.33;;
15677;SDS011;7939;50.814;6.368;2023-11-19T05:49:07;16.15;;;3.38;;
15677;SDS011;7939;50.814;6.368;2023-11-19T05:51:35;13.00;;;3.55;;
15677;SDS011;7939;50.814;6.368;2023-11-19T05:54:04;15.50;;;3.17;;
15677;SDS011;7939;50.814;6.368;2023-11-19T05:56:33;13.18;;;2.92;;
15677;SDS011;7939;50.814;6.368;2023-11-19T05:59:00;15.55;;;2.72;;
15677;SDS011;7939;50.814;6.368;2023-11-19T06:01:28;8.98;;;3.10;;
15677;SDS011;7939;50.814;6.368;2023-11-19T06:03:55;14.15;;;3.10;;
15677;SDS011;7939;50.814;6.368;2023-11-19T06:06:21;13.32;;;3.75;;
15677;SDS011;7939;50.814;6.368;2023-11-19T06:08:49;11.15;;;3.65;;
15677;SDS011;7939;50.814;6.368;2023-11-19T06:11:15;15.80;;;3.17;;
15677;SDS011;7939;50.814;6.368;2023-11-19T06:13:46;7.55;;;3.25;;
15677;SDS011;7939;50.814;6.368;2023-11-19T06:16:16;8.73;;;2.80;;
15677;SDS011;7939;50.814;6.368;2023-11-19T06:18:42;11.45;;;4.00;;
15677;SDS011;7939;50.814;6.368;2023-11-19T06:21:09;12.60;;;3.45;;
15677;SDS011;7939;50.814;6.368;2023-11-19T06:23:36;11.35;;;2.92;;
15677;SDS011;7939;50.814;6.368;2023-11-19T06:26:03;8.77;;;3.72;;
15677;SDS011;7939;50.814;6.368;2023-11-19T06:28:30;8.98;;;2.65;;
15677;SDS011;7939;50.814;6.368;2023-11-19T06:30:58;11.38;;;2.97;;
15677;SDS011;7939;50.814;6.368;2023-11-19T06:33:24;9.95;;;2.42;;
15677;SDS011;7939;50.814;6.368;2023-11-19T06:35:52;14.05;;;2.95;;
15677;SDS011;7939;50.814;6.368;2023-11-19T06:38:19;19.60;;;3.47;;
15677;SDS011;7939;50.814;6.368;2023-11-19T06:40:46;9.38;;;2.90;;
15677;SDS011;7939;50.814;6.368;2023-11-19T06:43:13;14.80;;;3.28;;
15677;SDS011;7939;50.814;6.368;2023-11-19T06:45:40;10.10;;;2.88;;
15677;SDS011;7939;50.814;6.368;2023-11-19T06:48:08;11.57;;;2.97;;
15677;SDS011;7939;50.814;6.368;2023-11-19T06:50:35;14.43;;;2.75;;
15677;SDS011;7939;50.814;6.368;2023-11-19T06:53:02;14.93;;;3.58;;
15677;SDS011;7939;50.814;6.368;2023-11-19T06:55:30;14.52;;;3.35;;
15677;SDS011;7939;50.814;6.368;2023-11-19T06:57:57;10.77;;;3.33;;
15677;SDS011;7939;50.814;6.368;2023-11-19T07:00:26;14.27;;;3.47;;
15677;SDS011;7939;50.814;6.368;2023-11-19T07:02:53;14.90;;;3.17;;
15677;SDS011;7939;50.814;6.368;2023-11-19T07:05:20;13.95;;;3.17;;
15677;SDS011;7939;50.814;6.368;2023-11-19T07:07:48;11.77;;;3.38;;
15677;SDS011;7939;50.814;6.368;2023-11-19T07:10:15;12.57;;;2.78;;
15677;SDS011;7939;50.814;6.368;2023-11-19T07:12:42;8.43;;;2.75;;
15677;SDS011;7939;50.814;6.368;2023-11-19T07:15:10;16.42;;;2.92;;
15677;SDS011;7939;50.814;6.368;2023-11-19T07:17:38;10.88;;;3.05;;
15677;SDS011;7939;50.814;6.368;2023-11-19T07:20:06;9.65;;;2.70;;
15677;SDS011;7939;50.814;6.368;2023-11-19T07:22:34;14.48;;;3.17;;
15677;SDS011;7939;50.814;6.368;2023-11-19T07:25:04;17.23;;;4.10;;
15677;SDS011;7939;50.814;6.368;2023-11-19T07:27:31;8.52;;;3.35;;
15677;SDS011;7939;50.814;6.368;2023-11-19T07:29:57;12.52;;;2.78;;
15677;SDS011;7939;50.814;6.368;2023-11-19T07:32:24;11.95;;;3.03;;
15677;SDS011;7939;50.814;6.368;2023-11-19T07:34:50;13.00;;;2.72;;
15677;SDS011;7939;50.814;6.368;2023-11-19T07:37:17;11.68;;;3.03;;
15677;SDS011;7939;50.814;6.368;2023-11-19T07:39:45;14.07;;;3.05;;
15677;SDS011;7939;50.814;6.368;2023-11-19T07:42:11;9.57;;;2.97;;
15677;SDS011;7939;50.814;6.368;2023-11-19T07:44:38;11.30;;;3.50;;
15677;SDS011;7939;50.814;6.368;2023-11-19T07:47:04;11.32;;;2.92;;
15677;SDS011;7939;50.814;6.368;2023-11-19T07:49:31;13.35;;;3.15;;
15677;SDS011;7939;50.814;6.368;2023-11-19T07:51:57;12.73;;;4.18;;
15677;SDS011;7939;50.814;6.368;2023-11-19T07:54:24;14.43;;;3.22;;
15677;SDS011;7939;50.814;6.368;2023-11-19T07:56:52;16.73;;;3.55;;
15677;SDS011;7939;50.814;6.368;2023-11-19T07:59:19;12.02;;;3.38;;
15677;SDS011;7939;50.814;6.368;2023-11-19T08:01:46;18.42;;;3.13;;
15677;SDS011;7939;50.814;6.368;2023-11-19T08:04:12;9.88;;;2.90;;
15677;SDS011;7939;50.814;6.368;2023-11-19T08:06:39;10.50;;;2.67;;
15677;SDS011;7939;50.814;6.368;2023-11-19T08:09:06;10.77;;;3.15;;
15677;SDS011;7939;50.814;6.368;2023-11-19T08:11:38;17.08;;;3.42;;
15677;SDS011;7939;50.814;6.368;2023-11-19T08:14:07;15.77;;;3.50;;
15677;SDS011;7939;50.814;6.368;2023-11-19T08:16:33;13.93;;;3.03;;
15677;SDS011;7939;50.814;6.368;2023-11-19T08:19:00;15.15;;;3.30;;
15677;SDS011;7939;50.814;6.368;2023-11-19T08:21:26;12.25;;;3.03;;
15677;SDS011;7939;50.814;6.368;2023-11-19T08:23:53;12.20;;;3.78;;
15677;SDS011;7939;50.814;6.368;2023-11-19T08:26:20;14.77;;;3.35;;
15677;SDS011;7939;50.814;6.368;2023-11-19T08:28:46;10.75;;;3.08;;
15677;SDS011;7939;50.814;6.368;2023-11-19T08:31:14;16.05;;;3.55;;
15677;SDS011;7939;50.814;6.368;2023-11-19T08:33:41;13.05;;;2.95;;
15677;SDS011;7939;50.814;6.368;2023-11-19T08:36:07;14.27;;;2.97;;
15677;SDS011;7939;50.814;6.368;2023-11-19T08:38:34;15.43;;;3.75;;
15677;SDS011;7939;50.814;6.368;2023-11-19T08:41:01;12.43;;;3.03;;
15677;SDS011;7939;50.814;6.368;2023-11-19T08:43:27;12.35;;;3.22;;
15677;SDS011;7939;50.814;6.368;2023-11-19T08:45:56;13.20;;;3.15;;
15677;SDS011;7939;50.814;6.368;2023-11-19T08:48:24;16.50;;;3.00;;
15677;SDS011;7939;50.814;6.368;2023-11-19T08:50:51;14.00;;;3.55;;
15677;SDS011;7939;50.814;6.368;2023-11-19T08:53:17;10.50;;;3.13;;
15677;SDS011;7939;50.814;6.368;2023-11-19T08:55:44;11.90;;;3.58;;
15677;SDS011;7939;50.814;6.368;2023-11-19T08:58:10;12.68;;;3.63;;
15677;SDS011;7939;50.814;6.368;2023-11-19T09:00:37;15.90;;;4.38;;
15677;SDS011;7939;50.814;6.368;2023-11-19T09:03:03;20.65;;;3.20;;
15677;SDS011;7939;50.814;6.368;2023-11-19T09:05:31;17.67;;;3.40;;
15677;SDS011;7939;50.814;6.368;2023-11-19T09:07:58;15.10;;;4.05;;
15677;SDS011;7939;50.814;6.368;2023-11-19T09:10:24;12.82;;;3.95;;
15677;SDS011;7939;50.814;6.368;2023-11-19T09:12:52;19.15;;;3.95;;
15677;SDS011;7939;50.814;6.368;2023-11-19T09:15:18;14.52;;;3.63;;
15677;SDS011;7939;50.814;6.368;2023-11-19T09:17:45;14.00;;;3.58;;
15677;SDS011;7939;50.814;6.368;2023-11-19T09:20:11;12.75;;;3.20;;
15677;SDS011;7939;50.814;6.368;2023-11-19T09:22:41;10.05;;;2.50;;
15677;SDS011;7939;50.814;6.368;2023-11-19T09:25:08;15.45;;;3.42;;
15677;SDS011;7939;50.814;6.368;2023-11-19T09:27:35;18.17;;;4.45;;
15677;SDS011;7939;50.814;6.368;2023-11-19T09:30:02;17.05;;;3.65;;
15677;SDS011;7939;50.814;6.368;2023-11-19T09:32:29;13.52;;;3.08;;
15677;SDS011;7939;50.814;6.368;2023-11-19T09:34:55;18.65;;;3.88;;
15677;SDS011;7939;50.814;6.368;2023-11-19T09:37:22;11.45;;;3.95;;
15677;SDS011;7939;50.814;6.368;2023-11-19T09:39:50;19.60;;;4.88;;
15677;SDS011;7939;50.814;6.368;2023-11-19T09:42:18;16.25;;;4.00;;
15677;SDS011;7939;50.814;6.368;2023-11-19T09:44:45;11.98;;;4.28;;
15677;SDS011;7939;50.814;6.368;2023-11-19T09:47:13;14.55;;;4.70;;
15677;SDS011;7939;50.814;6.368;2023-11-19T09:49:40;12.35;;;3.92;;
15677;SDS011;7939;50.814;6.368;2023-11-19T09:52:07;12.88;;;3.85;;
15677;SDS011;7939;50.814;6.368;2023-11-19T09:54:34;17.05;;;4.47;;
15677;SDS011;7939;50.814;6.368;2023-11-19T09:57:03;12.65;;;3.58;;
15677;SDS011;7939;50.814;6.368;2023-11-19T09:59:35;11.15;;;3.40;;
15677;SDS011;7939;50.814;6.368;2023-11-19T10:02:03;15.10;;;3.45;;
15677;SDS011;7939;50.814;6.368;2023-11-19T10:04:30;13.48;;;3.78;;
15677;SDS011;7939;50.814;6.368;2023-11-19T10:07:00;13.13;;;3.17;;
15677;SDS011;7939;50.814;6.368;2023-11-19T10:09:27;14.63;;;4.40;;
15677;SDS011;7939;50.814;6.368;2023-11-19T10:11:54;15.02;;;3.25;;
15677;SDS011;7939;50.814;6.368;2023-11-19T10:14:22;12.85;;;3.42;;
15677;SDS011;7939;50.814;6.368;2023-11-19T10:16:50;10.45;;;3.03;;
15677;SDS011;7939;50.814;6.368;2023-11-19T10:19:18;10.43;;;4.32;;
15677;SDS011;7939;50.814;6.368;2023-11-19T10:21:46;13.10;;;5.78;;
15677;SDS011;7939;50.814;6.368;2023-11-19T10:24:13;18.40;;;5.30;;
15677;SDS011;7939;50.814;6.368;2023-11-19T10:26:39;15.27;;;3.47;;
15677;SDS011;7939;50.814;6.368;2023-11-19T10:29:07;17.38;;;3.78;;
15677;SDS011;7939;50.814;6.368;2023-11-19T10:31:35;14.30;;;3.78;;
15677;SDS011;7939;50.814;6.368;2023-11-19T10:34:01;15.68;;;4.63;;
15677;SDS011;7939;50.814;6.368;2023-11-19T10:39:13;11.68;;;4.43;;
15677;SDS011;7939;50.814;6.368;2023-11-19T10:41:40;11.10;;;2.65;;
15677;SDS011;7939;50.814;6.368;2023-11-19T10:44:07;16.50;;;3.17;;
15677;SDS011;7939;50.814;6.368;2023-11-19T10:46:39;22.42;;;3.50;;
15677;SDS011;7939;50.814;6.368;2023-11-19T10:49:06;9.63;;;2.67;;
15677;SDS011;7939;50.814;6.368;2023-11-19T10:51:33;16.05;;;3.88;;
15677;SDS011;7939;50.814;6.368;2023-11-19T10:54:01;11.48;;;2.72;;
15677;SDS011;7939;50.814;6.368;2023-11-19T10:56:31;11.75;;;3.95;;
15677;SDS011;7939;50.814;6.368;2023-11-19T10:58:59;16.73;;;3.45;;
15677;SDS011;7939;50.814;6.368;2023-11-19T11:01:26;11.98;;;3.67;;
15677;SDS011;7939;50.814;6.368;2023-11-19T11:04:00;14.85;;;3.00;;
15677;SDS011;7939;50.814;6.368;2023-11-19T11:06:28;13.25;;;3.92;;
15677;SDS011;7939;50.814;6.368;2023-11-19T11:08:56;9.95;;;3.38;;
15677;SDS011;7939;50.814;6.368;2023-11-19T11:11:24;8.20;;;2.35;;
15677;SDS011;7939;50.814;6.368;2023-11-19T11:13:51;9.32;;;2.40;;
15677;SDS011;7939;50.814;6.368;2023-11-19T11:16:21;9.52;;;2.83;;
15677;SDS011;7939;50.814;6.368;2023-11-19T11:18:50;11.40;;;2.83;;
15677;SDS011;7939;50.814;6.368;2023-11-19T11:21:20;11.05;;;3.03;;
15677;SDS011;7939;50.814;6.368;2023-11-19T11:24:09;10.00;;;2.92;;
15677;SDS011;7939;50.814;6.368;2023-11-19T11:27:05;10.38;;;2.80;;
15677;SDS011;7939;50.814;6.368;2023-11-19T11:29:47;11.23;;;2.78;;
15677;SDS011;7939;50.814;6.368;2023-11-19T11:32:30;8.98;;;2.50;;
15677;SDS011;7939;50.814;6.368;2023-11-19T11:35:08;12.43;;;2.67;;
15677;SDS011;7939;50.814;6.368;2023-11-19T11:37:47;16.05;;;4.05;;
15677;SDS011;7939;50.814;6.368;2023-11-19T11:40:17;10.13;;;3.17;;
15677;SDS011;7939;50.814;6.368;2023-11-19T11:42:44;11.13;;;2.50;;
15677;SDS011;7939;50.814;6.368;2023-11-19T11:45:11;10.25;;;2.60;;
15677;SDS011;7939;50.814;6.368;2023-11-19T11:50:49;10.18;;;2.75;;
15677;SDS011;7939;50.814;6.368;2023-11-19T11:53:19;10.20;;;3.08;;
15677;SDS011;7939;50.814;6.368;2023-11-19T11:55:53;11.35;;;2.88;;
15677;SDS011;7939;50.814;6.368;2023-11-19T11:58:25;13.60;;;2.72;;
15677;SDS011;7939;50.814;6.368;2023-11-19T12:00:53;18.23;;;2.85;;
15677;SDS011;7939;50.814;6.368;2023-11-19T12:03:20;13.77;;;3.17;;
15677;SDS011;7939;50.814;6.368;2023-11-19T12:05:48;21.27;;;3.17;;
15677;SDS011;7939;50.814;6.368;2023-11-19T12:08:19;9.95;;;2.65;;
15677;SDS011;7939;50.814;6.368;2023-11-19T12:10:51;10.15;;;2.38;;
15677;SDS011;7939;50.814;6.368;2023-11-19T12:13:19;10.77;;;2.90;;
15677;SDS011;7939;50.814;6.368;2023-11-19T12:18:36;14.90;;;3.80;;
15677;SDS011;7939;50.814;6.368;2023-11-19T12:21:06;7.22;;;2.20;;
15677;SDS011;7939;50.814;6.368;2023-11-19T12:23:36;16.52;;;3.63;;
15677;SDS011;7939;50.814;6.368;2023-11-19T12:26:20;8.55;;;2.35;;
15677;SDS011;7939;50.814;6.368;2023-11-19T12:28:56;12.27;;;2.83;;
15677;SDS011;7939;50.814;6.368;2023-11-19T12:31:23;10.10;;;2.58;;
15677;SDS011;7939;50.814;6.368;2023-11-19T12:33:50;9.70;;;2.70;;
15677;SDS011;7939;50.814;6.368;2023-11-19T12:36:17;8.25;;;2.45;;
15677;SDS011;7939;50.814;6.368;2023-11-19T12:38:45;12.43;;;2.55;;
15677;SDS011;7939;50.814;6.368;2023-11-19T12:41:12;13.30;;;2.78;;
15677;SDS011;7939;50.814;6.368;2023-11-19T12:43:43;13.27;;;2.58;;
15677;SDS011;7939;50.814;6.368;2023-11-19T12:46:19;14.68;;;4.18;;
15677;SDS011;7939;50.814;6.368;2023-11-19T12:48:46;32.85;;;15.18;;
15677;SDS011;7939;50.814;6.368;2023-11-19T12:51:13;13.02;;;3.85;;
15677;SDS011;7939;50.814;6.368;2023-11-19T12:53:48;22.55;;;9.35;;
15677;SDS011;7939;50.814;6.368;2023-11-19T12:56:19;22.27;;;6.25;;
15677;SDS011;7939;50.814;6.368;2023-11-19T12:58:46;16.63;;;5.18;;
15677;SDS011;7939;50.814;6.368;2023-11-19T13:01:15;17.13;;;6.35;;
15677;SDS011;7939;50.814;6.368;2023-11-19T13:03:42;15.43;;;5.18;;
15677;SDS011;7939;50.814;6.368;2023-11-19T13:06:10;13.95;;;4.53;;
15677;SDS011;7939;50.814;6.368;2023-11-19T13:08:37;12.45;;;5.30;;
15677;SDS011;7939;50.814;6.368;2023-11-19T13:11:06;14.75;;;5.15;;
15677;SDS011;7939;50.814;6.368;2023-11-19T13:16:22;15.13;;;5.82;;
15677;SDS011;7939;50.814;6.368;2023-11-19T13:18:48;17.90;;;4.10;;
15677;SDS011;7939;50.814;6.368;2023-11-19T13:21:15;16.17;;;4.57;;
15677;SDS011;7939;50.814;6.368;2023-11-19T13:23:42;12.75;;;3.35;;
15677;SDS011;7939;50.814;6.368;2023-11-19T13:26:10;14.65;;;4.03;;
15677;SDS011;7939;50.814;6.368;2023-11-19T13:28:37;15.57;;;3.78;;
15677;SDS011;7939;50.814;6.368;2023-11-19T13:31:04;13.02;;;3.92;;
15677;SDS011;7939;50.814;6.368;2023-11-19T13:33:31;15.55;;;4.55;;
15677;SDS011;7939;50.814;6.368;2023-11-19T13:35:58;27.33;;;13.93;;
15677;SDS011;7939;50.814;6.368;2023-11-19T13:38:27;18.67;;;6.72;;
15677;SDS011;7939;50.814;6.368;2023-11-19T13:40:53;10.45;;;3.53;;
15677;SDS011;7939;50.814;6.368;2023-11-19T13:43:21;12.05;;;4.25;;
15677;SDS011;7939;50.814;6.368;2023-11-19T13:45:48;17.15;;;4.35;;
15677;SDS011;7939;50.814;6.368;2023-11-19T13:48:14;13.50;;;4.22;;
15677;SDS011;7939;50.814;6.368;2023-11-19T13:50:41;13.75;;;5.35;;
15677;SDS011;7939;50.814;6.368;2023-11-19T13:53:08;8.85;;;2.78;;
15677;SDS011;7939;50.814;6.368;2023-11-19T13:55:34;13.60;;;3.72;;
15677;SDS011;7939;50.814;6.368;2023-11-19T13:58:01;14.00;;;3.38;;
15677;SDS011;7939;50.814;6.368;2023-11-19T14:00:29;12.35;;;4.43;;
15677;SDS011;7939;50.814;6.368;2023-11-19T14:02:56;9.90;;;4.50;;
15677;SDS011;7939;50.814;6.368;2023-11-19T14:05:23;9.70;;;3.05;;
15677;SDS011;7939;50.814;6.368;2023-11-19T14:07:49;8.38;;;2.47;;
15677;SDS011;7939;50.814;6.368;2023-11-19T14:10:16;9.93;;;2.95;;
15677;SDS011;7939;50.814;6.368;2023-11-19T14:12:44;16.77;;;3.28;;
15677;SDS011;7939;50.814;6.368;2023-11-19T14:15:10;12.90;;;6.47;;
15677;SDS011;7939;50.814;6.368;2023-11-19T14:17:40;11.10;;;4.32;;
15677;SDS011;7939;50.814;6.368;2023-11-19T14:20:06;12.68;;;3.92;;
15677;SDS011;7939;50.814;6.368;2023-11-19T14:22:38;15.50;;;5.55;;
15677;SDS011;7939;50.814;6.368;2023-11-19T14:25:05;9.30;;;3.83;;
15677;SDS011;7939;50.814;6.368;2023-11-19T14:27:35;10.43;;;4.50;;
15677;SDS011;7939;50.814;6.368;2023-11-19T14:30:01;9.95;;;3.15;;
15677;SDS011;7939;50.814;6.368;2023-11-19T14:32:28;14.65;;;5.05;;
15677;SDS011;7939;50.814;6.368;2023-11-19T14:34:56;16.35;;;4.78;;
15677;SDS011;7939;50.814;6.368;2023-11-19T14:37:23;11.30;;;6.03;;
15677;SDS011;7939;50.814;6.368;2023-11-19T14:39:49;16.50;;;7.28;;
15677;SDS011;7939;50.814;6.368;2023-11-19T14:42:16;18.85;;;5.57;;
15677;SDS011;7939;50.814;6.368;2023-11-19T14:44:43;13.70;;;3.92;;
15677;SDS011;7939;50.814;6.368;2023-11-19T14:47:10;15.32;;;4.00;;
15677;SDS011;7939;50.814;6.368;2023-11-19T14:49:36;11.80;;;6.50;;
15677;SDS011;7939;50.814;6.368;2023-11-19T14:52:07;14.02;;;4.32;;
15677;SDS011;7939;50.814;6.368;2023-11-19T14:54:35;17.27;;;5.65;;
15677;SDS011;7939;50.814;6.368;2023-11-19T14:57:01;13.30;;;5.13;;
15677;SDS011;7939;50.814;6.368;2023-11-19T14:59:28;19.65;;;9.55;;
15677;SDS011;7939;50.814;6.368;2023-11-19T15:01:55;15.00;;;5.90;;
15677;SDS011;7939;50.814;6.368;2023-11-19T15:04:22;17.20;;;5.90;;
15677;SDS011;7939;50.814;6.368;2023-11-19T15:06:49;14.82;;;8.10;;
15677;SDS011;7939;50.814;6.368;2023-11-19T15:09:16;14.98;;;5.75;;